Time;durP1;ratioP1;P1;durP2;ratioP2;P2;SDS_P1;SDS_P2;PMS_P1;PMS_P2;Temp;Humidity;BMP_temperature;BMP_pressure;BME280_temperature;BME280_humidity;BME280_pressure;Samples;Min_cycle;Max_cycle;Signal;HPM_P1;HPM_P2
2022/01/31 00:00:40;;;;;;;19.20;5.47;;;5.50;67.30;;;;;;4684161;30;20065;-85
2022/01/31 00:03:06;;;;;;;16.90;4.72;;;5.40;67.40;;;;;;4662138;30;20050;-84
2022/01/31 00:05:31;;;;;;;16.65;5.28;;;5.40;67.40;;;;;;4675386;30;20487;-85
2022/01/31 00:07:57;;;;;;;15.52;4.25;;;5.40;67.50;;;;;;4683976;30;20094;-84
2022/01/31 00:10:30;;;;;;;15.27;4.32;;;5.40;67.50;;;;;;4668716;30;20100;-85
2022/01/31 00:13:05;;;;;;;14.75;4.20;;;5.40;67.60;;;;;;4683683;30;20073;-85
2022/01/31 00:15:31;;;;;;;23.63;5.03;;;5.40;67.70;;;;;;4678587;30;20466;-85
2022/01/31 00:17:57;;;;;;;22.13;5.60;;;5.40;67.80;;;;;;4682624;30;20487;-85
2022/01/31 00:20:23;;;;;;;15.95;5.38;;;5.40;68.00;;;;;;4683509;30;20046;-84
2022/01/31 00:22:49;;;;;;;21.60;7.13;;;5.40;68.00;;;;;;4669188;30;20046;-85
2022/01/31 00:25:14;;;;;;;17.33;4.80;;;5.40;68.10;;;;;;4680024;30;20184;-85
2022/01/31 00:27:40;;;;;;;15.68;5.47;;;5.40;68.20;;;;;;4668553;30;20459;-85
2022/01/31 00:30:07;;;;;;;17.92;5.95;;;5.40;68.30;;;;;;4684003;30;20054;-86
2022/01/31 00:32:33;;;;;;;19.85;6.78;;;5.40;68.30;;;;;;4684630;30;20058;-86
2022/01/31 00:34:59;;;;;;;16.90;5.72;;;5.40;68.30;;;;;;4670685;30;20061;-85
2022/01/31 00:37:25;;;;;;;16.38;6.32;;;5.40;68.50;;;;;;4686629;30;20403;-86
2022/01/31 00:39:51;;;;;;;15.85;5.50;;;5.40;68.60;;;;;;4670934;30;20054;-86
2022/01/31 00:42:19;;;;;;;19.65;6.43;;;5.40;68.50;;;;;;4668132;30;20396;-86
2022/01/31 00:44:53;;;;;;;17.60;6.28;;;5.50;68.70;;;;;;4668604;30;20145;-86
2022/01/31 00:47:23;;;;;;;15.63;5.65;;;5.50;68.70;;;;;;4682874;30;20060;-87
2022/01/31 00:49:51;;;;;;;19.27;6.10;;;5.40;69.10;;;;;;4681318;30;20121;-85
2022/01/31 00:52:17;;;;;;;16.88;6.03;;;5.50;68.80;;;;;;4696090;30;20053;-86
2022/01/31 00:54:44;;;;;;;19.70;6.90;;;5.50;68.70;;;;;;4669844;30;20054;-84
2022/01/31 00:57:10;;;;;;;22.05;7.43;;;5.50;69.30;;;;;;4668726;30;20499;-86
2022/01/31 00:59:36;;;;;;;20.63;7.35;;;5.50;69.00;;;;;;4683613;30;20100;-85
2022/01/31 01:02:01;;;;;;;15.93;6.88;;;5.50;69.10;;;;;;4683107;30;20057;-85
2022/01/31 01:04:27;;;;;;;19.08;7.88;;;5.50;69.10;;;;;;4668560;30;20054;-86
2022/01/31 01:06:53;;;;;;;20.40;8.55;;;5.50;69.30;;;;;;4667676;30;20046;-85
2022/01/31 01:09:18;;;;;;;17.05;7.32;;;5.60;69.50;;;;;;4682253;30;20050;-85
2022/01/31 01:11:44;;;;;;;22.88;7.35;;;5.60;69.60;;;;;;4667224;30;20096;-85
2022/01/31 01:14:10;;;;;;;18.40;8.52;;;5.50;69.50;;;;;;4683007;30;20058;-85
2022/01/31 01:16:36;;;;;;;17.42;8.55;;;5.60;69.80;;;;;;4667772;30;20053;-84
2022/01/31 01:19:03;;;;;;;14.85;7.82;;;5.60;70.10;;;;;;4679604;30;20515;-84
2022/01/31 01:21:29;;;;;;;17.77;8.45;;;5.60;70.00;;;;;;4667318;30;20077;-84
2022/01/31 01:23:55;;;;;;;17.17;8.63;;;5.60;70.20;;;;;;4681656;30;20172;-84
2022/01/31 01:26:20;;;;;;;17.10;9.07;;;5.60;70.20;;;;;;4686993;30;20431;-84
2022/01/31 01:28:46;;;;;;;18.70;8.52;;;5.60;70.40;;;;;;4693956;30;20136;-84
2022/01/31 01:31:12;;;;;;;17.77;8.30;;;5.60;70.60;;;;;;4658236;30;20062;-84
2022/01/31 01:33:40;;;;;;;15.55;9.00;;;5.60;70.60;;;;;;4667481;30;20046;-84
2022/01/31 01:36:07;;;;;;;17.02;7.95;;;5.60;70.60;;;;;;4667191;30;20393;-85
2022/01/31 01:38:34;;;;;;;20.83;8.68;;;5.60;70.50;;;;;;4681306;30;20116;-84
2022/01/31 01:41:00;;;;;;;22.15;8.43;;;5.60;70.60;;;;;;4672513;30;20083;-85
2022/01/31 01:43:27;;;;;;;23.25;9.55;;;5.60;70.80;;;;;;4682981;30;20057;-86
2022/01/31 01:45:55;;;;;;;13.65;8.20;;;5.60;70.70;;;;;;4667640;30;20458;-85
2022/01/31 01:48:21;;;;;;;16.98;8.98;;;5.60;70.90;;;;;;4667778;30;20149;-86
2022/01/31 01:50:47;;;;;;;15.73;9.75;;;5.60;71.00;;;;;;4686985;30;20145;-85
2022/01/31 01:53:13;;;;;;;16.13;8.95;;;5.60;70.90;;;;;;4682199;30;20050;-84
2022/01/31 01:55:39;;;;;;;14.68;8.40;;;5.60;71.10;;;;;;4667700;30;20046;-86
2022/01/31 01:58:13;;;;;;;16.42;9.57;;;5.60;71.30;;;;;;4664116;30;20085;-85
2022/01/31 02:03:38;;;;;;;18.80;8.48;;;5.60;71.40;;;;;;4632592;30;20664;-86
2022/01/31 02:06:06;;;;;;;14.55;8.32;;;5.60;71.70;;;;;;4622012;30;20481;-86
2022/01/31 02:08:40;;;;;;;16.50;8.98;;;5.60;71.80;;;;;;4641814;30;20079;-86
2022/01/31 02:11:13;;;;;;;13.77;7.80;;;5.60;72.20;;;;;;4619201;31;20063;-85
2022/01/31 02:13:38;;;;;;;12.52;7.35;;;5.50;71.90;;;;;;4613104;30;20109;-86
2022/01/31 02:16:07;;;;;;;11.07;7.47;;;5.50;72.00;;;;;;4642700;30;20564;-86
2022/01/31 02:18:33;;;;;;;14.40;7.90;;;5.60;72.10;;;;;;4616410;31;20067;-85
2022/01/31 02:20:59;;;;;;;11.05;7.25;;;5.50;72.20;;;;;;4616049;30;20067;-86
2022/01/31 02:23:27;;;;;;;12.43;7.22;;;5.60;72.30;;;;;;4624134;30;20141;-85
2022/01/31 02:26:05;;;;;;;14.82;6.45;;;5.60;72.50;;;;;;4632133;30;20058;-85
2022/01/31 02:28:34;;;;;;;10.32;5.68;;;5.50;72.60;;;;;;4623173;30;20149;-84
2022/01/31 02:31:00;;;;;;;12.38;5.72;;;5.50;72.40;;;;;;4636885;30;20102;-84
2022/01/31 02:33:27;;;;;;;8.93;5.35;;;5.60;72.50;;;;;;4639145;30;20098;-85
2022/01/31 02:35:56;;;;;;;11.75;5.82;;;5.60;72.60;;;;;;4630312;30;20485;-84
2022/01/31 02:38:22;;;;;;;11.77;5.50;;;5.60;72.70;;;;;;4639921;30;20105;-85
2022/01/31 02:40:50;;;;;;;9.10;5.28;;;5.60;72.80;;;;;;4650575;30;20142;-85
2022/01/31 02:43:24;;;;;;;7.50;4.78;;;5.60;73.00;;;;;;4660596;30;20049;-85
2022/01/31 02:45:50;;;;;;;9.93;5.25;;;5.60;73.00;;;;;;4682220;30;20129;-85
2022/01/31 02:48:19;;;;;;;9.90;5.00;;;5.60;73.00;;;;;;4684493;30;20050;-85
2022/01/31 02:50:45;;;;;;;9.90;4.78;;;5.60;73.10;;;;;;4685709;30;20058;-85
2022/01/31 02:53:13;;;;;;;8.88;4.68;;;5.60;73.10;;;;;;4684857;30;20129;-85
2022/01/31 02:55:45;;;;;;;9.20;4.85;;;5.60;73.40;;;;;;4670147;30;20089;-85
2022/01/31 02:58:11;;;;;;;6.93;4.72;;;5.70;73.50;;;;;;4685124;30;20057;-84
2022/01/31 03:00:38;;;;;;;8.13;4.07;;;5.60;73.80;;;;;;4685176;30;20444;-84
2022/01/31 03:03:04;;;;;;;8.20;4.60;;;5.60;73.80;;;;;;4685398;30;20050;-85
2022/01/31 03:05:31;;;;;;;10.13;5.07;;;5.70;74.10;;;;;;4668435;30;20097;-84
2022/01/31 03:07:56;;;;;;;12.70;4.95;;;5.70;74.40;;;;;;4669946;30;20093;-84
2022/01/31 03:10:22;;;;;;;8.73;4.60;;;5.70;74.40;;;;;;4670119;30;20096;-85
2022/01/31 03:12:48;;;;;;;13.43;4.80;;;5.70;75.00;;;;;;4684649;30;20565;-85
2022/01/31 03:15:14;;;;;;;11.38;4.95;;;5.70;74.80;;;;;;4682989;30;20050;-85
2022/01/31 03:17:42;;;;;;;13.20;5.70;;;5.70;74.80;;;;;;4669996;30;20495;-85
2022/01/31 03:20:09;;;;;;;18.30;5.47;;;5.80;75.40;;;;;;4684062;30;20062;-84
2022/01/31 03:22:34;;;;;;;14.85;4.97;;;5.70;75.40;;;;;;4685793;30;20046;-85
2022/01/31 03:25:00;;;;;;;13.90;4.20;;;5.80;75.90;;;;;;4684813;30;20049;-85
2022/01/31 03:27:26;;;;;;;16.15;4.15;;;5.80;75.90;;;;;;4676256;30;20042;-85
2022/01/31 03:29:51;;;;;;;17.35;4.03;;;5.80;75.70;;;;;;4684943;30;20561;-84
2022/01/31 03:32:17;;;;;;;18.48;4.00;;;5.90;75.90;;;;;;4685104;30;20093;-85
2022/01/31 03:34:43;;;;;;;21.77;4.25;;;5.90;75.90;;;;;;4685279;30;20129;-85
2022/01/31 03:37:08;;;;;;;16.02;4.25;;;6.00;76.00;;;;;;4679703;30;20062;-85
2022/01/31 03:39:34;;;;;;;20.77;4.78;;;6.10;76.30;;;;;;4678888;30;20053;-85
2022/01/31 03:42:00;;;;;;;19.20;3.35;;;6.10;76.20;;;;;;4670183;30;20058;-84
2022/01/31 03:44:25;;;;;;;15.40;3.25;;;6.20;76.20;;;;;;4671293;30;20056;-85
2022/01/31 03:46:51;;;;;;;17.55;3.70;;;6.20;76.10;;;;;;4668604;30;20077;-84
2022/01/31 03:49:16;;;;;;;16.15;4.18;;;6.20;76.00;;;;;;4677724;30;20065;-84
2022/01/31 03:51:42;;;;;;;19.45;3.08;;;6.20;75.80;;;;;;4698872;30;20063;-85
2022/01/31 03:54:08;;;;;;;17.80;2.97;;;6.20;75.60;;;;;;4685160;30;20050;-84
2022/01/31 03:56:35;;;;;;;25.92;3.95;;;6.30;75.80;;;;;;4677192;30;20530;-85
2022/01/31 03:59:02;;;;;;;21.27;3.60;;;6.30;75.70;;;;;;4689403;30;20085;-85
2022/01/31 04:01:27;;;;;;;21.15;3.78;;;6.30;75.60;;;;;;4668345;30;20507;-86
2022/01/31 04:03:53;;;;;;;18.00;3.33;;;6.40;75.60;;;;;;4683979;30;20137;-85
2022/01/31 04:06:19;;;;;;;15.57;3.78;;;6.40;75.60;;;;;;4667291;30;20389;-85
2022/01/31 04:08:44;;;;;;;24.92;3.60;;;6.40;75.50;;;;;;4681177;30;20077;-85
2022/01/31 04:11:10;;;;;;;21.45;3.70;;;6.40;75.40;;;;;;4684121;30;20062;-85
2022/01/31 04:13:36;;;;;;;20.75;4.05;;;6.40;75.30;;;;;;4684377;30;20053;-85
2022/01/31 04:16:02;;;;;;;20.73;4.20;;;6.40;75.20;;;;;;4683740;30;20097;-84
2022/01/31 04:18:29;;;;;;;23.48;4.22;;;6.50;75.10;;;;;;4672634;30;20054;-84
2022/01/31 04:20:54;;;;;;;18.33;3.15;;;6.50;75.00;;;;;;4668512;30;20050;-85
2022/01/31 04:23:22;;;;;;;19.88;3.63;;;6.50;74.90;;;;;;4683995;30;20042;-85
2022/01/31 04:28:21;;;;;;;21.77;3.00;;;6.50;74.60;;;;;;4666580;30;20054;-85
2022/01/31 04:30:57;;;;;;;19.60;3.40;;;6.50;75.00;;;;;;4668052;30;20088;-85
2022/01/31 04:33:24;;;;;;;17.83;3.50;;;6.40;74.40;;;;;;4683377;30;20404;-84
2022/01/31 04:35:50;;;;;;;12.93;3.88;;;6.40;74.20;;;;;;4684112;30;20053;-84
2022/01/31 04:38:16;;;;;;;20.40;3.63;;;6.40;74.20;;;;;;4667981;30;20400;-84
2022/01/31 04:40:41;;;;;;;18.48;3.67;;;6.40;74.10;;;;;;4683450;30;20050;-84
2022/01/31 04:43:07;;;;;;;13.68;2.80;;;6.40;74.00;;;;;;4684247;30;20042;-84
2022/01/31 04:45:33;;;;;;;16.65;2.70;;;6.40;74.00;;;;;;4683395;30;20560;-84
2022/01/31 04:47:58;;;;;;;24.55;3.88;;;6.40;74.00;;;;;;4667532;30;20115;-84
2022/01/31 04:50:24;;;;;;;15.90;4.15;;;6.40;73.90;;;;;;4681793;30;20049;-84
2022/01/31 04:52:50;;;;;;;19.67;3.28;;;6.30;74.30;;;;;;4668754;30;20403;-83
2022/01/31 04:55:16;;;;;;;20.42;4.07;;;6.30;73.80;;;;;;4667467;30;20054;-84
2022/01/31 04:57:41;;;;;;;20.08;3.20;;;6.40;73.80;;;;;;4668104;30;20053;-84
2022/01/31 05:00:09;;;;;;;23.88;3.70;;;6.40;73.70;;;;;;4666323;30;20049;-85
2022/01/31 05:02:35;;;;;;;17.25;2.90;;;6.30;73.50;;;;;;4667653;30;20053;-85
2022/01/31 05:05:03;;;;;;;17.48;3.35;;;6.30;73.50;;;;;;4668196;30;20428;-84
2022/01/31 05:07:29;;;;;;;21.05;3.42;;;6.30;73.60;;;;;;4682998;30;20054;-85
2022/01/31 05:09:54;;;;;;;19.13;4.10;;;6.30;73.60;;;;;;4667449;30;20084;-83
2022/01/31 05:12:20;;;;;;;20.77;4.90;;;6.30;73.60;;;;;;4682125;30;20054;-82
2022/01/31 05:14:46;;;;;;;17.75;2.95;;;6.30;73.60;;;;;;4683354;30;20065;-84
2022/01/31 05:17:12;;;;;;;13.35;2.88;;;6.30;73.70;;;;;;4682642;30;20108;-83
2022/01/31 05:19:37;;;;;;;5.50;1.40;;;6.30;73.80;;;;;;4667099;30;20066;-84
2022/01/31 05:22:03;;;;;;;6.70;1.17;;;6.30;73.70;;;;;;4681651;30;20395;-84
2022/01/31 05:24:29;;;;;;;6.47;1.20;;;6.20;73.60;;;;;;4683049;30;20401;-83
2022/01/31 05:26:55;;;;;;;10.40;1.30;;;6.20;73.60;;;;;;4667061;30;20076;-84
2022/01/31 05:29:22;;;;;;;8.65;0.90;;;6.10;73.60;;;;;;4683297;30;20511;-83
2022/01/31 05:31:48;;;;;;;5.10;1.27;;;6.10;73.70;;;;;;4681665;30;20411;-84
2022/01/31 05:34:15;;;;;;;6.00;1.10;;;6.10;73.70;;;;;;4683153;30;20494;-84
2022/01/31 05:36:41;;;;;;;6.47;1.08;;;6.10;73.80;;;;;;4682349;30;20128;-83
2022/01/31 05:39:07;;;;;;;7.38;1.42;;;6.00;73.90;;;;;;4667435;30;20176;-84
2022/01/31 05:41:33;;;;;;;9.00;1.38;;;6.00;74.00;;;;;;4668886;30;20128;-84
2022/01/31 05:43:59;;;;;;;7.97;1.40;;;6.00;74.10;;;;;;4676663;30;20046;-84
2022/01/31 05:46:24;;;;;;;10.38;1.23;;;6.00;74.20;;;;;;4666690;30;20407;-84
2022/01/31 05:48:51;;;;;;;9.43;1.77;;;5.90;74.30;;;;;;4667643;30;20518;-84
2022/01/31 05:51:19;;;;;;;8.75;1.55;;;5.90;74.50;;;;;;4681793;30;20061;-84
2022/01/31 05:53:47;;;;;;;10.65;1.88;;;5.90;74.60;;;;;;4673360;30;20056;-83
2022/01/31 05:56:14;;;;;;;12.20;2.00;;;5.90;74.70;;;;;;4668024;30;20558;-83
2022/01/31 05:58:41;;;;;;;14.88;1.83;;;6.00;74.80;;;;;;4684269;30;20068;-84
2022/01/31 06:01:06;;;;;;;10.73;2.20;;;6.00;75.10;;;;;;4667033;30;21075;-83
2022/01/31 06:03:34;;;;;;;11.77;2.60;;;6.00;75.00;;;;;;4667429;30;20045;-83
2022/01/31 06:05:59;;;;;;;14.35;2.22;;;6.00;75.20;;;;;;4666254;30;20419;-82
2022/01/31 06:08:25;;;;;;;20.60;3.22;;;6.00;75.40;;;;;;4667905;30;20050;-83
2022/01/31 06:10:51;;;;;;;12.82;2.03;;;6.00;75.40;;;;;;4681847;30;20435;-83
2022/01/31 06:13:23;;;;;;;14.77;3.25;;;6.00;75.50;;;;;;4666784;30;20066;-84
2022/01/31 06:15:49;;;;;;;13.98;2.95;;;6.00;75.60;;;;;;4681041;30;20101;-82
2022/01/31 06:18:15;;;;;;;22.35;3.70;;;6.00;75.70;;;;;;4680757;30;20495;-83
2022/01/31 06:20:41;;;;;;;13.18;2.33;;;6.00;75.90;;;;;;4689851;30;20056;-83
2022/01/31 06:23:06;;;;;;;13.68;2.20;;;6.00;75.90;;;;;;4670601;30;20050;-82
2022/01/31 06:25:34;;;;;;;16.10;2.95;;;6.00;76.00;;;;;;4670235;30;20131;-82
2022/01/31 06:28:00;;;;;;;14.18;2.90;;;6.00;76.10;;;;;;4686329;30;20061;-83
2022/01/31 06:30:26;;;;;;;20.85;2.42;;;6.00;76.20;;;;;;4676204;30;20053;-83
2022/01/31 06:32:53;;;;;;;15.02;2.55;;;6.00;76.40;;;;;;4685671;30;20499;-83
2022/01/31 06:35:19;;;;;;;14.65;2.08;;;6.00;76.20;;;;;;4685545;30;20086;-84
2022/01/31 06:37:44;;;;;;;14.95;2.53;;;6.00;76.40;;;;;;4678696;30;20143;-83
2022/01/31 06:40:10;;;;;;;12.63;2.55;;;6.10;76.40;;;;;;4686148;30;20173;-83
2022/01/31 06:42:36;;;;;;;9.15;2.15;;;6.00;76.20;;;;;;4685177;30;20053;-83
2022/01/31 06:45:03;;;;;;;11.05;2.35;;;6.00;76.20;;;;;;4669596;30;20058;-85
2022/01/31 06:47:29;;;;;;;12.73;2.63;;;6.00;76.10;;;;;;4667391;30;20406;-84
2022/01/31 06:49:55;;;;;;;10.25;2.58;;;6.10;76.10;;;;;;4685538;30;20046;-84
2022/01/31 06:52:20;;;;;;;10.00;1.83;;;6.10;76.10;;;;;;4670354;30;20052;-84
2022/01/31 06:54:50;;;;;;;11.95;2.45;;;6.10;76.10;;;;;;4671793;30;20058;-85
2022/01/31 06:57:19;;;;;;;12.38;2.42;;;6.00;76.10;;;;;;4688170;30;20108;-85
2022/01/31 06:59:45;;;;;;;13.23;1.92;;;6.00;76.10;;;;;;4655770;30;20077;-85
2022/01/31 07:02:10;;;;;;;14.25;2.30;;;6.30;76.40;;;;;;4670258;30;20054;-85
2022/01/31 07:04:36;;;;;;;12.80;2.40;;;6.00;76.20;;;;;;4670519;30;20153;-86
2022/01/31 07:07:03;;;;;;;11.13;2.15;;;6.00;76.20;;;;;;4686112;30;20503;-85
2022/01/31 07:09:29;;;;;;;11.80;1.75;;;6.00;76.30;;;;;;4669868;30;20072;-85
2022/01/31 07:11:59;;;;;;;8.75;2.42;;;6.00;76.30;;;;;;4670038;30;20491;-86
2022/01/31 07:14:30;;;;;;;20.85;2.63;;;6.00;76.80;;;;;;4666948;30;20063;-86
2022/01/31 07:17:00;;;;;;;15.20;3.47;;;6.00;76.50;;;;;;4680292;30;20054;-85
2022/01/31 07:19:28;;;;;;;19.73;2.67;;;6.00;76.60;;;;;;4703118;30;20056;-86
2022/01/31 07:21:54;;;;;;;13.63;3.10;;;6.00;76.70;;;;;;4672764;30;20066;-85
2022/01/31 07:24:25;;;;;;;13.65;2.80;;;6.00;76.70;;;;;;4683256;30;20061;-85
2022/01/31 07:26:51;;;;;;;18.75;2.60;;;6.10;76.90;;;;;;4685208;30;20487;-85
2022/01/31 07:29:19;;;;;;;19.60;2.45;;;6.00;76.90;;;;;;4669368;30;20145;-86
2022/01/31 07:31:46;;;;;;;10.15;2.53;;;6.00;76.90;;;;;;4669710;30;20488;-85
2022/01/31 07:34:14;;;;;;;19.13;3.10;;;6.10;77.00;;;;;;4688379;30;20050;-87
2022/01/31 07:36:41;;;;;;;14.48;2.67;;;6.10;77.10;;;;;;4670418;30;20079;-85
2022/01/31 07:39:06;;;;;;;16.48;2.60;;;6.20;77.20;;;;;;4686660;30;20049;-85
2022/01/31 07:41:32;;;;;;;18.48;2.65;;;6.10;77.20;;;;;;4685825;30;20057;-86
2022/01/31 07:43:59;;;;;;;18.88;3.38;;;6.10;77.30;;;;;;4685453;30;20069;-86
2022/01/31 07:46:24;;;;;;;18.83;3.28;;;6.10;77.30;;;;;;4680656;30;20065;-86
2022/01/31 07:48:52;;;;;;;25.25;4.30;;;6.20;77.60;;;;;;4679132;30;20061;-86
2022/01/31 07:51:18;;;;;;;17.92;2.97;;;6.30;77.80;;;;;;4669460;30;20504;-86
2022/01/31 07:53:44;;;;;;;16.33;2.55;;;6.20;77.80;;;;;;4685079;30;20056;-86
2022/01/31 07:56:11;;;;;;;13.70;3.38;;;6.20;77.90;;;;;;4669748;30;20058;-87
2022/01/31 07:58:38;;;;;;;17.27;3.13;;;6.20;77.90;;;;;;4670343;30;20096;-87
2022/01/31 08:01:04;;;;;;;14.38;2.85;;;6.20;78.10;;;;;;4685291;30;20108;-86
2022/01/31 08:03:31;;;;;;;17.48;3.03;;;6.30;78.10;;;;;;4683427;30;20060;-87
2022/01/31 08:06:28;;;;;;;16.67;3.08;;;6.30;78.20;;;;;;4685346;30;20448;-87
2022/01/31 08:08:54;;;;;;;27.88;4.30;;;6.30;78.20;;;;;;4669485;30;20554;-87
2022/01/31 08:11:21;;;;;;;22.45;3.97;;;6.30;78.30;;;;;;4669659;30;20105;-88
2022/01/31 08:13:54;;;;;;;20.42;3.03;;;6.40;78.30;;;;;;4685093;30;20068;-87
2022/01/31 08:16:19;;;;;;;21.95;3.42;;;6.30;78.30;;;;;;4684874;30;20046;-87
2022/01/31 08:18:46;;;;;;;23.05;3.83;;;6.40;78.40;;;;;;4679756;30;20487;-87
2022/01/31 08:21:13;;;;;;;22.30;3.55;;;6.40;78.40;;;;;;4681172;30;20053;-87
2022/01/31 08:23:40;;;;;;;17.45;3.10;;;6.40;78.40;;;;;;4703488;30;20049;-88
2022/01/31 08:26:10;;;;;;;14.27;2.50;;;6.40;78.30;;;;;;4687522;30;20438;-87
2022/01/31 08:28:42;;;;;;;16.17;3.03;;;6.50;78.30;;;;;;4685736;30;20054;-88
2022/01/31 08:31:18;;;;;;;16.52;2.90;;;6.50;78.30;;;;;;4676126;30;20088;-89
2022/01/31 08:36:11;;;;;;;18.17;3.15;;;6.50;78.30;;;;;;4695243;30;20057;-88
2022/01/31 08:38:39;;;;;;;23.95;4.78;;;6.60;78.30;;;;;;4693441;30;20060;-88
2022/01/31 08:41:06;;;;;;;17.70;2.45;;;6.60;78.30;;;;;;4687533;30;20046;-87
2022/01/31 08:43:36;;;;;;;16.00;3.45;;;6.60;78.30;;;;;;4689395;30;20058;-88
2022/01/31 08:46:02;;;;;;;18.52;3.63;;;6.70;78.40;;;;;;4686624;30;20050;-88
2022/01/31 08:48:28;;;;;;;14.98;2.38;;;6.60;78.40;;;;;;4685270;30;20058;-88
2022/01/31 08:50:55;;;;;;;15.73;2.40;;;6.60;78.50;;;;;;4685405;30;20175;-90
2022/01/31 08:54:17;;;;;;;14.35;2.75;;;6.60;78.40;;;;;;4684978;30;20050;-88
2022/01/31 08:56:47;;;;;;;19.10;2.13;;;6.70;78.60;;;;;;4669709;30;20152;-90
2022/01/31 08:59:19;;;;;;;11.63;2.45;;;6.90;78.80;;;;;;4669776;30;20053;-88
2022/01/31 09:01:52;;;;;;;13.38;1.65;;;6.70;78.60;;;;;;4686122;30;20153;-89
2022/01/31 09:04:32;;;;;;;9.90;1.67;;;6.70;78.50;;;;;;4691943;30;20828;-89
2022/01/31 09:06:58;;;;;;;7.57;1.73;;;6.70;78.50;;;;;;4687716;30;20171;-89
2022/01/31 09:09:24;;;;;;;10.60;1.65;;;7.00;78.60;;;;;;4695558;30;20054;-91
2022/01/31 09:11:50;;;;;;;8.60;1.75;;;6.70;78.40;;;;;;4647942;30;20065;-93
2022/01/31 09:14:16;;;;;;;13.85;1.77;;;7.10;78.70;;;;;;4653501;30;20088;-91
2022/01/31 09:16:41;;;;;;;8.60;1.40;;;6.70;78.50;;;;;;4653433;30;20059;-91
2022/01/31 09:19:07;;;;;;;12.43;1.90;;;6.70;78.80;;;;;;4668450;30;20062;-92
2022/01/31 09:25:15;;;;;;;23.77;3.25;;;6.90;79.00;;;;;;4668673;30;20050;-92
2022/01/31 09:27:41;;;;;;;11.77;1.67;;;7.00;78.90;;;;;;4669345;30;20061;-93
2022/01/31 09:30:09;;;;;;;7.75;2.13;;;7.00;78.70;;;;;;4670405;30;20064;-92
2022/01/31 09:32:36;;;;;;;13.10;2.65;;;7.00;78.60;;;;;;4685720;30;20060;-94
2022/01/31 09:35:03;;;;;;;11.18;1.95;;;7.00;78.50;;;;;;4681319;30;20450;-91
2022/01/31 09:37:28;;;;;;;8.60;1.35;;;7.00;78.30;;;;;;4680456;30;20050;-95
2022/01/31 09:40:01;;;;;;;9.95;1.70;;;7.00;78.10;;;;;;4641660;30;20572;-95
2022/01/31 09:42:38;;;;;;;10.77;2.10;;;7.10;78.00;;;;;;4670158;30;20095;-93
2022/01/31 09:45:11;;;;;;;12.50;3.42;;;7.10;77.90;;;;;;4670881;30;20081;-94
2022/01/31 09:50:21;;;;;;;5.13;1.20;;;7.20;77.90;;;;;;4671477;30;20084;-96
2022/01/31 09:56:36;;;;;;;7.25;1.50;;;7.20;77.50;;;;;;4688361;30;20045;-95
2022/01/31 09:59:03;;;;;;;5.65;1.48;;;7.30;77.40;;;;;;4698063;30;20053;-93
2022/01/31 10:01:35;;;;;;;6.05;1.55;;;7.40;77.20;;;;;;4693033;30;20073;-92
2022/01/31 10:04:13;;;;;;;11.80;1.33;;;7.40;77.00;;;;;;4708958;30;20030;-93
2022/01/31 10:06:58;;;;;;;8.73;1.60;;;7.50;77.00;;;;;;4700555;30;20050;-94
2022/01/31 10:09:27;;;;;;;9.32;1.63;;;7.60;76.50;;;;;;4682885;30;20049;-93
2022/01/31 10:12:21;;;;;;;9.50;1.38;;;7.60;76.20;;;;;;4686144;30;20062;-95
2022/01/31 10:17:41;;;;;;;10.57;1.60;;;7.80;75.40;;;;;;4704996;30;20033;-96
2022/01/31 10:20:25;;;;;;;8.85;1.42;;;7.80;75.10;;;;;;4709796;30;20060;-96
2022/01/31 10:22:51;;;;;;;12.55;2.33;;;7.90;74.80;;;;;;4694510;30;20141;-95
2022/01/31 10:25:20;;;;;;;10.32;2.55;;;8.00;74.80;;;;;;4693689;30;20046;-95
2022/01/31 10:27:48;;;;;;;10.63;1.38;;;8.00;74.80;;;;;;4690144;30;20097;-93
2022/01/31 10:30:17;;;;;;;9.38;1.98;;;8.10;74.60;;;;;;4675802;30;20061;-93
2022/01/31 10:32:46;;;;;;;17.63;2.47;;;8.10;74.30;;;;;;4684899;30;20465;-95
2022/01/31 10:35:18;;;;;;;10.48;1.50;;;8.20;74.30;;;;;;4689978;30;20087;-94
2022/01/31 10:50:47;;;;;;;10.52;1.73;;;8.40;74.30;;;;;;4641404;30;20153;-95
2022/01/31 10:57:32;;;;;;;8.07;1.90;;;8.40;74.00;;;;;;4652810;30;20069;-94
2022/01/31 11:00:01;;;;;;;11.33;2.30;;;8.40;74.00;;;;;;4626510;30;20459;-93
2022/01/31 11:02:27;;;;;;;14.38;2.33;;;8.40;74.00;;;;;;4624505;30;20071;-95
2022/01/31 11:04:53;;;;;;;8.60;1.50;;;8.60;73.90;;;;;;4638416;30;20520;-95
2022/01/31 11:07:37;;;;;;;12.45;1.90;;;8.30;73.60;;;;;;4640061;30;20054;-95
2022/01/31 11:10:03;;;;;;;9.18;1.23;;;8.40;73.30;;;;;;4637684;30;20062;-94
2022/01/31 11:12:29;;;;;;;3.38;0.90;;;8.30;73.40;;;;;;4623732;30;20198;-95
2022/01/31 11:14:56;;;;;;;6.72;1.05;;;8.70;73.60;;;;;;4651621;30;20063;-94
2022/01/31 11:17:24;;;;;;;6.05;0.88;;;8.30;73.40;;;;;;4638255;30;20138;-94
2022/01/31 11:19:57;;;;;;;5.82;0.85;;;8.30;73.20;;;;;;4638800;30;20420;-95
2022/01/31 11:26:09;;;;;;;4.93;0.90;;;8.20;72.90;;;;;;4697868;30;20092;-96
2022/01/31 11:28:38;;;;;;;4.20;0.90;;;8.20;73.10;;;;;;4696181;30;20128;-94
2022/01/31 11:31:04;;;;;;;1.73;0.50;;;8.30;73.10;;;;;;4680955;30;20058;-95
2022/01/31 11:33:45;;;;;;;3.83;0.52;;;8.40;73.10;;;;;;4684687;30;20532;-96
2022/01/31 11:36:15;;;;;;;4.47;0.90;;;8.10;73.10;;;;;;4698108;30;20053;-95
2022/01/31 11:39:04;;;;;;;2.63;0.60;;;8.10;73.10;;;;;;4672898;30;20063;-96
2022/01/31 11:42:02;;;;;;;3.03;0.60;;;8.00;73.00;;;;;;4699982;30;20058;-95
2022/01/31 11:45:17;;;;;;;5.63;1.05;;;8.20;73.40;;;;;;4700426;30;20054;-94
2022/01/31 11:47:52;;;;;;;4.40;1.08;;;8.00;73.60;;;;;;4698821;25;20127;-94
2022/01/31 11:50:20;;;;;;;9.27;1.48;;;8.00;73.90;;;;;;4707474;30;20364;-93
2022/01/31 11:52:49;;;;;;;9.90;1.90;;;8.00;74.40;;;;;;4692472;30;20045;-93
2022/01/31 11:55:17;;;;;;;12.07;1.95;;;8.00;74.40;;;;;;4706591;30;20107;-93
2022/01/31 11:57:48;;;;;;;13.52;2.25;;;8.00;74.70;;;;;;4721986;30;20395;-93
2022/01/31 12:00:16;;;;;;;10.32;2.25;;;8.00;75.00;;;;;;4692299;30;20083;-92
2022/01/31 12:02:44;;;;;;;15.95;3.17;;;8.00;75.10;;;;;;4706246;30;20053;-93
2022/01/31 12:05:21;;;;;;;12.02;3.25;;;8.40;75.70;;;;;;4706800;30;20097;-92
2022/01/31 12:07:48;;;;;;;13.38;2.80;;;8.00;75.80;;;;;;4705973;30;20056;-91
2022/01/31 12:10:32;;;;;;;14.70;3.05;;;8.00;75.80;;;;;;4692533;30;20079;-91
2022/01/31 12:13:10;;;;;;;11.93;2.53;;;8.10;75.90;;;;;;4721814;30;20068;-92
2022/01/31 12:18:57;;;;;;;14.50;2.97;;;8.10;76.10;;;;;;4703572;30;20056;-89
2022/01/31 12:24:46;;;;;;;16.48;3.05;;;8.20;76.20;;;;;;4651523;30;20122;-90
2022/01/31 12:27:26;;;;;;;17.83;3.17;;;8.20;75.80;;;;;;4651719;30;20069;-93
2022/01/31 12:29:56;;;;;;;16.85;2.90;;;8.50;75.70;;;;;;4651680;30;20110;-92
2022/01/31 12:32:35;;;;;;;14.40;3.20;;;8.30;75.50;;;;;;4636818;30;20069;-91
2022/01/31 12:35:08;;;;;;;16.17;2.60;;;8.30;75.50;;;;;;4650003;30;20061;-92
2022/01/31 12:37:49;;;;;;;12.32;2.53;;;8.40;75.50;;;;;;4635787;30;20070;-92
2022/01/31 12:40:39;;;;;;;14.93;3.03;;;8.40;75.40;;;;;;4636390;30;20051;-91
2022/01/31 12:43:51;;;;;;;15.95;2.60;;;8.50;75.20;;;;;;4637756;30;20189;-91
2022/01/31 12:46:14;;;;;;;11.60;2.50;;;8.50;74.70;;;;;;4640470;30;20124;-90
2022/01/31 12:48:40;;;;;;;11.32;2.08;;;8.50;74.30;;;;;;4641118;30;20062;-90
2022/01/31 12:51:08;;;;;;;10.10;2.40;;;8.50;73.90;;;;;;4654324;30;20082;-91
2022/01/31 12:56:12;;;;;;;10.02;2.05;;;8.60;73.40;;;;;;4641850;30;20424;-91
2022/01/31 12:58:46;;;;;;;11.30;2.00;;;8.60;73.30;;;;;;4706214;30;20045;-90
2022/01/31 13:01:20;;;;;;;17.48;3.05;;;8.60;73.30;;;;;;4687745;30;20064;-91
2022/01/31 13:03:47;;;;;;;;;;;8.60;73.20;;;;;;4675970;30;20053;-90
2022/01/31 13:06:30;;;;;;;10.45;1.95;;;8.60;73.00;;;;;;4696504;30;19907;-91
2022/01/31 13:09:03;;;;;;;15.50;2.60;;;8.60;73.30;;;;;;4702841;30;20436;-91
2022/01/31 13:11:29;;;;;;;10.30;3.05;;;8.60;73.40;;;;;;4706076;30;20084;-90
2022/01/31 13:14:07;;;;;;;6.38;1.50;;;8.60;73.40;;;;;;4692896;30;20045;-91
2022/01/31 13:16:42;;;;;;;11.23;2.45;;;8.70;73.40;;;;;;4693142;30;20096;-89
2022/01/31 13:19:21;;;;;;;10.77;1.80;;;8.70;73.50;;;;;;4691654;30;20049;-90
2022/01/31 13:21:48;;;;;;;11.27;2.20;;;8.70;73.50;;;;;;4688749;30;20080;-87
2022/01/31 13:24:56;;;;;;;12.50;2.70;;;8.70;73.50;;;;;;4689626;30;20041;-89
2022/01/31 13:27:42;;;;;;;19.08;2.70;;;8.70;73.70;;;;;;4704199;30;20403;-88
2022/01/31 13:30:15;;;;;;;22.17;3.72;;;8.90;74.10;;;;;;4689641;30;20057;-88
2022/01/31 13:32:41;;;;;;;22.70;4.30;;;8.60;74.20;;;;;;4688295;30;20124;-90
2022/01/31 13:35:09;;;;;;;15.30;3.20;;;8.60;74.30;;;;;;4690164;30;20080;-89
2022/01/31 13:37:58;;;;;;;23.23;4.00;;;8.50;74.80;;;;;;4705493;30;20133;-89
2022/01/31 13:40:38;;;;;;;26.42;3.70;;;8.50;75.00;;;;;;4689135;30;20503;-91
2022/01/31 13:43:16;;;;;;;25.67;4.55;;;8.50;75.20;;;;;;4688586;30;20056;-91
2022/01/31 13:46:37;;;;;;;18.83;3.92;;;8.50;75.40;;;;;;4701592;30;20112;-87
2022/01/31 13:48:51;;;;;;;;;;;8.50;75.50;;;;;;4693245;30;20067;-85
2022/01/31 13:51:35;;;;;;;24.77;3.92;;;8.40;75.60;;;;;;4685433;30;19981;-87